createdAt,value
2023-05-22T00:00:24.686Z,54.07
2023-05-22T00:03:36.696Z,54.29
2023-05-22T00:06:46.561Z,54.07
2023-05-22T00:09:54.135Z,54.45
2023-05-22T00:13:02.462Z,54.46
2023-05-22T00:16:10.457Z,54.52
2023-05-22T00:19:17.445Z,54.26
2023-05-22T00:22:35.959Z,54.02
2023-05-22T00:25:43.568Z,53.79
2023-05-22T00:28:52.750Z,54.16
2023-05-22T00:32:00.611Z,53.90
2023-05-22T00:35:08.425Z,54.48
2023-05-22T00:38:33.472Z,54.44
2023-05-22T00:41:41.593Z,54.39
2023-05-22T00:44:55.601Z,54.83
2023-05-22T00:48:02.383Z,54.30
2023-05-22T00:51:25.257Z,54.32
2023-05-22T00:54:50.693Z,54.36
2023-05-22T00:58:19.742Z,54.31
2023-05-22T01:01:43.458Z,53.93
2023-05-22T01:05:13.623Z,54.05
2023-05-22T01:08:34.489Z,54.37
2023-05-22T01:12:22.007Z,54.40
2023-05-22T01:16:17.986Z,54.72
2023-05-22T01:20:10.439Z,54.57
2023-05-22T01:24:26.095Z,54.58
2023-05-22T01:28:19.453Z,55.05
2023-05-22T01:31:33.037Z,54.75
2023-05-22T01:34:51.662Z,54.85
2023-05-22T01:38:05.034Z,54.82
2023-05-22T01:41:12.458Z,54.90
2023-05-22T01:44:18.492Z,54.76
2023-05-22T01:47:43.262Z,54.89
2023-05-22T01:51:15.130Z,55.03
2023-05-22T01:54:46.687Z,55.25
2023-05-22T01:58:32.561Z,54.69
2023-05-22T02:02:04.253Z,55.12
2023-05-22T02:05:36.041Z,55.05
2023-05-22T02:08:59.893Z,54.83
2023-05-22T02:12:22.098Z,54.89
2023-05-22T02:15:43.187Z,55.18
2023-05-22T02:19:06.890Z,54.80
2023-05-22T02:22:31.616Z,54.74
2023-05-22T02:25:52.616Z,55.00
2023-05-22T02:29:13.912Z,55.01
2023-05-22T02:32:35.066Z,55.06
2023-05-22T02:35:57.274Z,54.68
2023-05-22T02:39:21.249Z,54.92
2023-05-22T02:42:42.125Z,54.88
2023-05-22T02:46:03.124Z,55.02
2023-05-22T02:49:24.393Z,54.89
2023-05-22T02:52:45.635Z,54.94
2023-05-22T02:56:11.012Z,55.06
2023-05-22T02:59:33.230Z,55.27
2023-05-22T03:02:54.241Z,55.56
2023-05-22T03:06:02.145Z,55.54
2023-05-22T03:09:08.973Z,55.43
2023-05-22T03:12:18.459Z,55.78
2023-05-22T03:15:26.928Z,55.16
2023-05-22T03:18:38.619Z,55.49
2023-05-22T03:21:45.720Z,54.95
2023-05-22T03:24:53.858Z,54.58
2023-05-22T03:28:02.999Z,55.16
2023-05-22T03:31:14.221Z,55.08
2023-05-22T03:34:36.697Z,54.56
2023-05-22T03:37:44.654Z,55.10
2023-05-22T03:40:59.879Z,54.86
2023-05-22T03:44:17.126Z,54.05
2023-05-22T03:47:23.221Z,54.45
2023-05-22T03:50:30.033Z,53.88
2023-05-22T03:53:36.032Z,53.11
2023-05-22T03:56:42.811Z,51.94
2023-05-22T03:59:53.366Z,50.97
2023-05-22T04:03:07.092Z,50.35
2023-05-22T04:06:28.181Z,49.28
2023-05-22T04:09:35.850Z,49.18
2023-05-22T04:13:00.561Z,48.51
2023-05-22T04:16:24.384Z,47.56
2023-05-22T04:19:45.394Z,47.30
2023-05-22T04:23:07.550Z,46.36
2023-05-22T04:26:29.945Z,44.85
2023-05-22T04:29:50.931Z,43.92
2023-05-22T04:33:14.628Z,43.20
2023-05-22T04:36:22.576Z,43.62
2023-05-22T04:39:29.738Z,42.73
2023-05-22T04:42:38.585Z,41.98
2023-05-22T04:45:50.370Z,41.33
2023-05-22T04:49:02.439Z,40.89
2023-05-22T04:52:11.854Z,41.63
2023-05-22T04:55:19.535Z,41.01
2023-05-22T04:58:27.701Z,41.80
2023-05-22T05:01:35.948Z,40.74
2023-05-22T05:04:45.164Z,41.38
2023-05-22T05:07:53.779Z,41.60
2023-05-22T05:11:15.215Z,42.28
2023-05-22T05:14:36.865Z,41.98
2023-05-22T05:17:58.345Z,41.52
2023-05-22T05:21:23.610Z,41.05
2023-05-22T05:24:44.771Z,40.73
2023-05-22T05:28:11.121Z,40.05
2023-05-22T05:31:38.338Z,39.82
2023-05-22T05:35:13.360Z,40.16
2023-05-22T05:38:42.108Z,39.11
2023-05-22T05:42:10.450Z,38.64
2023-05-22T05:45:31.981Z,37.90
2023-05-22T05:48:44.700Z,38.63
2023-05-22T05:51:51.177Z,39.67
2023-05-22T05:55:02.611Z,39.63
2023-05-22T05:58:09.909Z,39.61
2023-05-22T06:01:29.897Z,38.72
2023-05-22T06:04:51.378Z,38.38
2023-05-22T06:08:13.814Z,38.13
2023-05-22T06:11:38.341Z,37.01
2023-05-22T06:14:59.642Z,34.69
2023-05-22T06:18:20.847Z,34.34
2023-05-22T06:21:28.944Z,34.35
2023-05-22T06:24:35.228Z,33.28
2023-05-22T06:27:51.245Z,32.46
2023-05-22T06:30:58.379Z,32.06
2023-05-22T06:34:08.289Z,32.51
2023-05-22T06:37:15.170Z,31.63
2023-05-22T06:40:31.122Z,32.35
2023-05-22T06:43:53.662Z,31.37
2023-05-22T06:47:10.773Z,31.64
2023-05-22T06:50:17.348Z,31.87
2023-05-22T06:53:25.878Z,29.74
2023-05-22T06:56:32.325Z,28.73
2023-05-22T07:00:01.848Z,28.31
2023-05-22T07:03:41.528Z,27.39
2023-05-22T07:07:33.106Z,27.15
2023-05-22T07:10:54.767Z,28.00
2023-05-22T07:14:16.555Z,26.76
2023-05-22T07:17:42.194Z,28.07
2023-05-22T07:20:50.505Z,27.18
2023-05-22T07:23:59.843Z,27.65
2023-05-22T07:27:07.461Z,26.75
2023-05-22T07:30:16.321Z,25.32
2023-05-22T07:33:26.446Z,25.77
2023-05-22T07:36:37.516Z,25.87
2023-05-22T07:39:47.118Z,26.95
2023-05-22T07:43:09.456Z,27.14
2023-05-22T07:46:30.935Z,26.21
2023-05-22T07:49:51.483Z,25.47
2023-05-22T07:52:58.610Z,26.21
2023-05-22T07:56:11.684Z,25.63
2023-05-22T07:59:21.398Z,25.34
2023-05-22T08:02:32.202Z,24.93
2023-05-22T08:05:41.257Z,25.13
2023-05-22T08:08:48.383Z,24.23
2023-05-22T08:11:56.247Z,23.60
2023-05-22T08:15:06.611Z,25.25
2023-05-22T08:18:14.955Z,26.27
2023-05-22T08:21:29.955Z,26.23
2023-05-22T08:24:36.180Z,25.28
2023-05-22T08:27:43.248Z,25.94
2023-05-22T08:30:49.470Z,25.58
2023-05-22T08:34:05.226Z,25.78
2023-05-22T08:37:14.382Z,26.37
2023-05-22T08:40:25.073Z,25.78
2023-05-22T08:43:32.403Z,25.94
2023-05-22T08:46:44.589Z,26.13
2023-05-22T08:50:07.236Z,26.34
2023-05-22T08:53:24.345Z,26.45
2023-05-22T08:56:33.335Z,28.09
2023-05-22T08:59:42.951Z,27.91
2023-05-22T09:02:52.752Z,28.07
2023-05-22T09:06:00.035Z,27.02
2023-05-22T09:09:31.141Z,26.46
2023-05-22T09:12:38.879Z,25.77
2023-05-22T09:15:44.990Z,24.85
2023-05-22T09:18:52.617Z,26.26
2023-05-22T09:22:09.877Z,25.83
2023-05-22T09:25:28.173Z,25.24
2023-05-22T09:28:38.083Z,25.86
2023-05-22T09:31:46.831Z,24.72
2023-05-22T09:35:11.977Z,24.69
2023-05-22T09:38:25.608Z,22.80
2023-05-22T09:41:42.470Z,23.41
2023-05-22T09:44:52.582Z,24.34
2023-05-22T09:47:58.932Z,24.94
2023-05-22T09:51:07.956Z,25.55
2023-05-22T09:54:17.942Z,26.51
2023-05-22T09:57:29.793Z,25.51
2023-05-22T10:00:40.378Z,24.35
2023-05-22T10:03:49.621Z,25.98
2023-05-22T10:07:00.177Z,25.54
2023-05-22T10:10:28.300Z,25.95
2023-05-22T10:13:38.899Z,26.18
2023-05-22T10:16:47.909Z,26.57
2023-05-22T10:19:57.499Z,26.22
2023-05-22T10:23:12.784Z,26.92
2023-05-22T10:26:22.956Z,25.43
2023-05-22T10:29:43.858Z,25.96
2023-05-22T10:33:01.371Z,27.06
2023-05-22T10:36:17.250Z,27.43
2023-05-22T10:39:46.544Z,26.67
2023-05-22T10:42:52.912Z,26.94
2023-05-22T10:46:16.928Z,28.05
2023-05-22T10:49:28.842Z,27.16
2023-05-22T10:52:36.124Z,27.38
2023-05-22T10:55:51.367Z,27.13
2023-05-22T10:59:11.415Z,26.94
2023-05-22T11:02:32.154Z,26.55
2023-05-22T11:05:42.841Z,25.68
2023-05-22T11:08:53.428Z,23.40
2023-05-22T11:12:21.046Z,23.18
2023-05-22T11:15:41.066Z,24.15
2023-05-22T11:18:51.209Z,24.66
2023-05-22T11:22:11.643Z,25.65
2023-05-22T11:25:22.725Z,24.94
2023-05-22T11:28:30.709Z,24.37
2023-05-22T11:31:39.972Z,25.78
2023-05-22T11:34:50.883Z,25.11
2023-05-22T11:37:59.419Z,25.15
2023-05-22T11:41:05.813Z,25.09
2023-05-22T11:44:17.547Z,25.48
2023-05-22T11:47:23.867Z,26.48
2023-05-22T11:50:47.683Z,27.55
2023-05-22T11:53:56.620Z,28.00
2023-05-22T11:57:08.566Z,26.54
2023-05-22T12:00:17.401Z,26.53
2023-05-22T12:03:26.091Z,27.39
2023-05-22T12:06:36.381Z,26.22
2023-05-22T12:09:45.107Z,27.30
2023-05-22T12:12:52.336Z,26.42
2023-05-22T12:16:03.329Z,27.72
2023-05-22T12:19:12.684Z,26.24
2023-05-22T12:22:29.270Z,26.58
2023-05-22T12:25:40.194Z,27.67
2023-05-22T12:28:46.617Z,28.05
2023-05-22T12:31:56.592Z,28.33
2023-05-22T12:35:09.297Z,28.92
2023-05-22T12:38:29.903Z,29.31
2023-05-22T12:41:39.607Z,29.32
2023-05-22T12:44:49.606Z,29.11
2023-05-22T12:47:55.699Z,29.58
2023-05-22T12:51:02.725Z,29.78
2023-05-22T12:54:11.482Z,29.73
2023-05-22T12:57:18.972Z,29.72
2023-05-22T13:00:40.932Z,29.58
2023-05-22T13:04:02.692Z,28.81
2023-05-22T13:07:13.694Z,29.77
2023-05-22T13:10:23.110Z,29.95
2023-05-22T13:13:36.275Z,29.55
2023-05-22T13:16:51.017Z,29.18
2023-05-22T13:19:59.330Z,28.54
2023-05-22T13:23:05.271Z,28.63
2023-05-22T13:26:15.757Z,29.57
2023-05-22T13:29:21.997Z,29.73
2023-05-22T13:32:37.448Z,29.73
2023-05-22T13:35:43.574Z,29.87
2023-05-22T13:38:50.675Z,30.27
2023-05-22T13:41:59.801Z,29.69
2023-05-22T13:45:08.178Z,29.66
2023-05-22T13:48:14.524Z,30.59
2023-05-22T13:51:21.688Z,29.62
2023-05-22T13:54:27.880Z,29.87
2023-05-22T13:57:40.870Z,29.54
2023-05-22T14:00:47.187Z,30.06
2023-05-22T14:03:54.493Z,30.43
2023-05-22T14:07:00.767Z,30.47
2023-05-22T14:10:16.095Z,30.70
2023-05-22T14:13:32.699Z,29.99
2023-05-22T14:16:40.721Z,31.15
2023-05-22T14:19:48.301Z,31.12
2023-05-22T14:22:58.096Z,32.12
2023-05-22T14:26:04.795Z,30.93
2023-05-22T14:29:16.835Z,30.26
2023-05-22T14:32:22.984Z,30.78
2023-05-22T14:35:32.235Z,31.00
2023-05-22T14:38:38.519Z,31.01
2023-05-22T14:41:48.321Z,31.20
2023-05-22T14:44:56.812Z,30.34
2023-05-22T14:48:03.624Z,30.95
2023-05-22T14:51:09.684Z,31.42
2023-05-22T14:54:18.082Z,31.91
2023-05-22T14:57:29.908Z,31.77
2023-05-22T15:00:42.944Z,31.79
2023-05-22T15:03:48.939Z,30.89
2023-05-22T15:06:56.102Z,30.42
2023-05-22T15:10:02.626Z,31.08
2023-05-22T15:13:24.957Z,30.75
2023-05-22T15:16:35.081Z,30.49
2023-05-22T15:19:44.104Z,31.13
2023-05-22T15:22:50.199Z,31.64
2023-05-22T15:25:58.780Z,31.16
2023-05-22T15:29:04.734Z,30.42
2023-05-22T15:32:16.646Z,31.52
2023-05-22T15:35:23.178Z,30.67
2023-05-22T15:38:31.272Z,30.34
2023-05-22T15:41:41.190Z,30.39
2023-05-22T15:44:50.719Z,30.45
2023-05-22T15:48:00.421Z,31.87
2023-05-22T15:51:16.263Z,32.46
2023-05-22T15:54:22.613Z,32.05
2023-05-22T15:57:31.184Z,33.16
2023-05-22T16:00:41.436Z,33.15
2023-05-22T16:03:51.053Z,32.48
2023-05-22T16:06:57.302Z,32.18
2023-05-22T16:10:10.374Z,32.64
2023-05-22T16:13:16.859Z,32.42
2023-05-22T16:16:37.835Z,32.54
2023-05-22T16:20:08.375Z,33.18
2023-05-22T16:23:30.195Z,32.54
2023-05-22T16:26:51.115Z,33.21
2023-05-22T16:30:15.167Z,33.78
2023-05-22T16:33:37.799Z,32.84
2023-05-22T16:37:04.968Z,33.25
2023-05-22T16:40:13.105Z,33.45
2023-05-22T16:43:28.371Z,33.79
2023-05-22T16:46:35.452Z,34.07
2023-05-22T16:49:46.639Z,33.91
2023-05-22T16:52:57.989Z,33.39
2023-05-22T16:56:03.861Z,34.00
2023-05-22T16:59:10.690Z,34.31
2023-05-22T17:02:16.912Z,34.42
2023-05-22T17:05:24.532Z,34.42
2023-05-22T17:08:33.208Z,34.23
2023-05-22T17:11:40.280Z,35.30
2023-05-22T17:14:46.391Z,34.93
2023-05-22T17:17:53.360Z,34.74
2023-05-22T17:21:00.989Z,35.35
2023-05-22T17:24:23.504Z,35.79
2023-05-22T17:27:35.963Z,36.73
2023-05-22T17:30:47.059Z,37.23
2023-05-22T17:33:53.057Z,37.63
2023-05-22T17:37:01.803Z,37.51
2023-05-22T17:40:12.994Z,38.03
2023-05-22T17:43:20.235Z,37.94
2023-05-22T17:46:26.981Z,38.10
2023-05-22T17:49:33.931Z,38.16
2023-05-22T17:52:43.015Z,38.34
2023-05-22T17:55:55.425Z,38.26
2023-05-22T17:59:01.758Z,38.49
2023-05-22T18:02:09.056Z,38.90
2023-05-22T18:05:15.184Z,39.22
2023-05-22T18:08:22.493Z,39.27
2023-05-22T18:11:34.972Z,39.72
2023-05-22T18:14:42.434Z,40.63
2023-05-22T18:18:03.755Z,41.85
2023-05-22T18:21:26.450Z,42.50
2023-05-22T18:24:47.416Z,43.45
2023-05-22T18:28:11.715Z,44.09
2023-05-22T18:31:33.050Z,44.10
2023-05-22T18:34:54.702Z,44.37
2023-05-22T18:38:02.583Z,44.76
2023-05-22T18:41:15.368Z,44.82
2023-05-22T18:44:25.369Z,45.31
2023-05-22T18:47:31.508Z,45.13
2023-05-22T18:50:38.391Z,45.91
2023-05-22T18:53:44.459Z,46.28
2023-05-22T18:56:51.422Z,46.59
2023-05-22T19:00:00.405Z,46.17
2023-05-22T19:03:11.617Z,46.27
2023-05-22T19:06:19.192Z,46.96
2023-05-22T19:09:26.131Z,46.60
2023-05-22T19:12:32.289Z,46.79
2023-05-22T19:15:41.852Z,46.51
2023-05-22T19:18:51.095Z,46.54
2023-05-22T19:21:58.079Z,46.66
2023-05-22T19:25:04.245Z,46.92
2023-05-22T19:28:11.251Z,47.05
2023-05-22T19:31:19.917Z,47.50
2023-05-22T19:34:26.779Z,47.60
2023-05-22T19:37:32.790Z,47.54
2023-05-22T19:40:40.122Z,48.27
2023-05-22T19:44:01.366Z,48.50
2023-05-22T19:47:25.511Z,48.74
2023-05-22T19:50:46.631Z,48.78
2023-05-22T19:54:07.824Z,48.85
2023-05-22T19:57:29.572Z,49.44
2023-05-22T20:00:51.580Z,49.69
2023-05-22T20:04:01.373Z,49.60
2023-05-22T20:07:08.688Z,49.80
2023-05-22T20:10:15.286Z,50.09
2023-05-22T20:13:22.139Z,50.62
2023-05-22T20:16:29.582Z,51.31
2023-05-22T20:19:39.164Z,50.93
2023-05-22T20:22:46.152Z,51.36
2023-05-22T20:25:53.280Z,51.05
2023-05-22T20:28:59.367Z,51.94
2023-05-22T20:32:06.340Z,52.05
2023-05-22T20:35:19.069Z,52.60
2023-05-22T20:38:42.767Z,52.67
2023-05-22T20:42:05.031Z,52.76
2023-05-22T20:45:26.771Z,53.09
2023-05-22T20:48:48.573Z,53.28
2023-05-22T20:52:13.629Z,54.03
2023-05-22T20:55:34.530Z,54.26
2023-05-22T20:58:55.447Z,53.84
2023-05-22T21:02:16.358Z,54.64
2023-05-22T21:05:37.487Z,54.95
2023-05-22T21:09:02.229Z,55.11
2023-05-22T21:12:23.081Z,55.33
2023-05-22T21:15:45.167Z,55.55
2023-05-22T21:18:52.032Z,55.53
2023-05-22T21:21:58.139Z,55.89
2023-05-22T21:25:08.749Z,56.29
2023-05-22T21:28:14.654Z,55.71
2023-05-22T21:31:21.512Z,55.90
2023-05-22T21:34:47.009Z,56.00
2023-05-22T21:38:08.002Z,56.08
2023-05-22T21:41:38.639Z,56.13
2023-05-22T21:44:59.566Z,56.22
2023-05-22T21:48:20.560Z,56.06
2023-05-22T21:51:41.386Z,56.30
2023-05-22T21:55:02.754Z,57.03
2023-05-22T21:58:28.852Z,56.97
2023-05-22T22:01:49.962Z,57.37
2023-05-22T22:05:11.920Z,57.33
2023-05-22T22:08:32.808Z,57.48
2023-05-22T22:11:39.633Z,57.38
2023-05-22T22:14:49.299Z,58.13
2023-05-22T22:17:59.585Z,58.79
2023-05-22T22:21:06.141Z,59.49
2023-05-22T22:24:13.485Z,59.57
2023-05-22T22:27:20.045Z,60.34
2023-05-22T22:30:29.461Z,60.48
2023-05-22T22:33:50.394Z,60.31
2023-05-22T22:37:11.911Z,60.02
2023-05-22T22:40:32.737Z,60.55
2023-05-22T22:43:56.478Z,60.34
2023-05-22T22:47:20.103Z,61.10
2023-05-22T22:50:41.882Z,60.85
2023-05-22T22:54:03.022Z,61.31
2023-05-22T22:57:23.960Z,61.09
2023-05-22T23:00:45.249Z,60.94
2023-05-22T23:04:22.405Z,61.08
2023-05-22T23:07:45.561Z,60.99
2023-05-22T23:11:09.382Z,60.99
2023-05-22T23:14:37.894Z,60.96
2023-05-22T23:17:59.583Z,61.16
2023-05-22T23:21:23.084Z,60.93
2023-05-22T23:24:44.081Z,60.43
2023-05-22T23:28:23.579Z,60.55
2023-05-22T23:31:50.803Z,59.91
2023-05-22T23:35:12.791Z,59.34
2023-05-22T23:38:38.968Z,59.79
2023-05-22T23:42:08.644Z,59.62
2023-05-22T23:45:31.757Z,59.30
2023-05-22T23:48:38.622Z,59.92
2023-05-22T23:51:44.574Z,60.38
2023-05-22T23:54:54.049Z,60.28
2023-05-22T23:58:00.196Z,60.68
